sensor_id;sensor_type;location;lat;lon;timestamp;temperature;humidity
57664;DHT22;43493;53.098;6.064;2023-04-03T00:00:30;3.70;99.90
57664;DHT22;43493;53.098;6.064;2023-04-03T00:02:55;3.80;99.90
57664;DHT22;43493;53.098;6.064;2023-04-03T00:05:21;3.70;99.90
57664;DHT22;43493;53.098;6.064;2023-04-03T00:07:47;3.70;99.90
57664;DHT22;43493;53.098;6.064;2023-04-03T00:10:15;3.80;99.90
57664;DHT22;43493;53.098;6.064;2023-04-03T00:12:41;3.70;99.90
57664;DHT22;43493;53.098;6.064;2023-04-03T00:15:07;3.70;99.90
57664;DHT22;43493;53.098;6.064;2023-04-03T00:17:33;3.70;99.90
57664;DHT22;43493;53.098;6.064;2023-04-03T00:19:58;3.70;99.90
57664;DHT22;43493;53.098;6.064;2023-04-03T00:22:24;3.70;99.90
57664;DHT22;43493;53.098;6.064;2023-04-03T00:24:52;3.70;99.90
57664;DHT22;43493;53.098;6.064;2023-04-03T00:27:17;3.70;99.90
57664;DHT22;43493;53.098;6.064;2023-04-03T00:29:43;3.60;99.90
57664;DHT22;43493;53.098;6.064;2023-04-03T00:32:09;3.60;99.90
57664;DHT22;43493;53.098;6.064;2023-04-03T00:34:35;3.60;99.90
57664;DHT22;43493;53.098;6.064;2023-04-03T00:37:01;3.50;99.90
57664;DHT22;43493;53.098;6.064;2023-04-03T00:39:26;3.50;99.90
57664;DHT22;43493;53.098;6.064;2023-04-03T00:41:52;3.40;99.90
57664;DHT22;43493;53.098;6.064;2023-04-03T00:47:05;3.40;99.90
57664;DHT22;43493;53.098;6.064;2023-04-03T00:49:32;3.40;99.90
57664;DHT22;43493;53.098;6.064;2023-04-03T00:51:58;3.40;99.90
57664;DHT22;43493;53.098;6.064;2023-04-03T00:54:25;3.40;99.90
57664;DHT22;43493;53.098;6.064;2023-04-03T00:56:53;3.30;99.90
57664;DHT22;43493;53.098;6.064;2023-04-03T00:59:27;3.30;99.90
57664;DHT22;43493;53.098;6.064;2023-04-03T01:01:56;3.30;99.90
57664;DHT22;43493;53.098;6.064;2023-04-03T01:04:39;3.30;99.90
57664;DHT22;43493;53.098;6.064;2023-04-03T01:07:17;3.20;99.90
57664;DHT22;43493;53.098;6.064;2023-04-03T01:09:44;3.20;99.90
57664;DHT22;43493;53.098;6.064;2023-04-03T01:12:23;3.20;99.90
57664;DHT22;43493;53.098;6.064;2023-04-03T01:17:31;3.10;99.90
57664;DHT22;43493;53.098;6.064;2023-04-03T01:25:52;3.00;99.90
57664;DHT22;43493;53.098;6.064;2023-04-03T01:28:24;3.00;99.90
57664;DHT22;43493;53.098;6.064;2023-04-03T01:33:29;2.90;99.90
57664;DHT22;43493;53.098;6.064;2023-04-03T01:35:55;2.90;99.90
57664;DHT22;43493;53.098;6.064;2023-04-03T01:38:21;2.90;99.90
57664;DHT22;43493;53.098;6.064;2023-04-03T01:40:47;2.90;99.90
57664;DHT22;43493;53.098;6.064;2023-04-03T01:43:12;2.80;99.90
57664;DHT22;43493;53.098;6.064;2023-04-03T01:45:38;2.80;99.90
57664;DHT22;43493;53.098;6.064;2023-04-03T01:48:04;2.80;99.90
57664;DHT22;43493;53.098;6.064;2023-04-03T01:50:30;2.80;99.90
57664;DHT22;43493;53.098;6.064;2023-04-03T01:52:56;2.80;99.90
57664;DHT22;43493;53.098;6.064;2023-04-03T01:55:22;2.70;99.90
57664;DHT22;43493;53.098;6.064;2023-04-03T01:57:47;2.70;99.90
57664;DHT22;43493;53.098;6.064;2023-04-03T02:00:13;2.70;99.90
57664;DHT22;43493;53.098;6.064;2023-04-03T02:02:39;2.70;99.90
57664;DHT22;43493;53.098;6.064;2023-04-03T02:05:06;2.70;99.90
57664;DHT22;43493;53.098;6.064;2023-04-03T02:07:32;2.60;99.90
57664;DHT22;43493;53.098;6.064;2023-04-03T02:09:57;2.60;99.90
57664;DHT22;43493;53.098;6.064;2023-04-03T02:12:23;2.60;99.90
57664;DHT22;43493;53.098;6.064;2023-04-03T02:14:49;2.60;99.90
57664;DHT22;43493;53.098;6.064;2023-04-03T02:17:15;2.50;99.90
57664;DHT22;43493;53.098;6.064;2023-04-03T02:19:41;2.60;99.90
57664;DHT22;43493;53.098;6.064;2023-04-03T02:22:06;2.50;99.90
57664;DHT22;43493;53.098;6.064;2023-04-03T02:24:32;2.50;99.90
57664;DHT22;43493;53.098;6.064;2023-04-03T02:26:58;2.50;99.90
57664;DHT22;43493;53.098;6.064;2023-04-03T02:29:24;2.40;99.90
57664;DHT22;43493;53.098;6.064;2023-04-03T02:31:50;2.40;99.90
57664;DHT22;43493;53.098;6.064;2023-04-03T02:34:16;2.40;99.90
57664;DHT22;43493;53.098;6.064;2023-04-03T02:36:42;2.30;99.90
57664;DHT22;43493;53.098;6.064;2023-04-03T02:39:08;2.40;99.90
57664;DHT22;43493;53.098;6.064;2023-04-03T02:41:34;2.40;99.90
57664;DHT22;43493;53.098;6.064;2023-04-03T02:44:02;2.30;99.90
57664;DHT22;43493;53.098;6.064;2023-04-03T02:46:28;2.30;99.90
57664;DHT22;43493;53.098;6.064;2023-04-03T02:48:54;2.30;99.90
57664;DHT22;43493;53.098;6.064;2023-04-03T02:51:20;2.20;99.90
57664;DHT22;43493;53.098;6.064;2023-04-03T02:53:46;2.30;99.90
57664;DHT22;43493;53.098;6.064;2023-04-03T02:56:11;2.30;99.90
57664;DHT22;43493;53.098;6.064;2023-04-03T02:58:37;2.20;99.90
57664;DHT22;43493;53.098;6.064;2023-04-03T03:01:04;2.20;99.90
57664;DHT22;43493;53.098;6.064;2023-04-03T03:03:30;2.20;99.90
57664;DHT22;43493;53.098;6.064;2023-04-03T03:06:06;2.10;99.90
57664;DHT22;43493;53.098;6.064;2023-04-03T03:08:33;2.10;99.90
57664;DHT22;43493;53.098;6.064;2023-04-03T03:10:59;2.10;99.90
57664;DHT22;43493;53.098;6.064;2023-04-03T03:13:25;2.10;99.90
57664;DHT22;43493;53.098;6.064;2023-04-03T03:15:51;2.10;99.90
57664;DHT22;43493;53.098;6.064;2023-04-03T03:18:17;2.10;99.90
57664;DHT22;43493;53.098;6.064;2023-04-03T03:20:43;2.00;99.90
57664;DHT22;43493;53.098;6.064;2023-04-03T03:23:09;2.00;99.90
57664;DHT22;43493;53.098;6.064;2023-04-03T03:25:38;2.00;99.90
57664;DHT22;43493;53.098;6.064;2023-04-03T03:28:04;2.00;99.90
57664;DHT22;43493;53.098;6.064;2023-04-03T03:30:30;2.00;99.90
57664;DHT22;43493;53.098;6.064;2023-04-03T03:32:56;1.80;99.90
57664;DHT22;43493;53.098;6.064;2023-04-03T03:35:22;1.90;99.90
57664;DHT22;43493;53.098;6.064;2023-04-03T03:37:47;1.90;99.90
57664;DHT22;43493;53.098;6.064;2023-04-03T03:40:13;1.90;99.90
57664;DHT22;43493;53.098;6.064;2023-04-03T03:42:39;1.90;99.90
57664;DHT22;43493;53.098;6.064;2023-04-03T03:45:06;1.90;99.90
57664;DHT22;43493;53.098;6.064;2023-04-03T03:47:32;1.80;99.90
57664;DHT22;43493;53.098;6.064;2023-04-03T03:49:57;1.80;99.90
57664;DHT22;43493;53.098;6.064;2023-04-03T03:52:23;1.80;99.90
57664;DHT22;43493;53.098;6.064;2023-04-03T03:54:49;1.80;99.90
57664;DHT22;43493;53.098;6.064;2023-04-03T03:57:14;1.80;99.90
57664;DHT22;43493;53.098;6.064;2023-04-03T03:59:41;1.80;99.90
57664;DHT22;43493;53.098;6.064;2023-04-03T04:02:07;1.80;99.90
57664;DHT22;43493;53.098;6.064;2023-04-03T04:04:33;1.70;99.90
57664;DHT22;43493;53.098;6.064;2023-04-03T04:06:59;1.70;99.90
57664;DHT22;43493;53.098;6.064;2023-04-03T04:09:26;1.70;99.90
57664;DHT22;43493;53.098;6.064;2023-04-03T04:11:52;1.70;99.90
57664;DHT22;43493;53.098;6.064;2023-04-03T04:14:18;1.70;99.90
57664;DHT22;43493;53.098;6.064;2023-04-03T04:16:46;1.60;99.90
57664;DHT22;43493;53.098;6.064;2023-04-03T04:19:12;1.60;99.90
57664;DHT22;43493;53.098;6.064;2023-04-03T04:21:38;1.60;99.90
57664;DHT22;43493;53.098;6.064;2023-04-03T04:24:05;1.60;99.90
57664;DHT22;43493;53.098;6.064;2023-04-03T04:26:31;1.60;99.90
57664;DHT22;43493;53.098;6.064;2023-04-03T04:28:57;1.60;99.90
57664;DHT22;43493;53.098;6.064;2023-04-03T04:31:22;1.50;99.90
57664;DHT22;43493;53.098;6.064;2023-04-03T04:33:48;1.50;99.90
57664;DHT22;43493;53.098;6.064;2023-04-03T04:36:14;1.50;99.90
57664;DHT22;43493;53.098;6.064;2023-04-03T04:38:40;1.40;99.90
57664;DHT22;43493;53.098;6.064;2023-04-03T04:41:06;1.40;99.90
57664;DHT22;43493;53.098;6.064;2023-04-03T04:43:33;1.50;99.90
57664;DHT22;43493;53.098;6.064;2023-04-03T04:46:09;1.30;99.90
57664;DHT22;43493;53.098;6.064;2023-04-03T04:48:37;1.30;99.90
57664;DHT22;43493;53.098;6.064;2023-04-03T04:51:03;1.30;99.90
57664;DHT22;43493;53.098;6.064;2023-04-03T04:53:29;1.30;99.90
57664;DHT22;43493;53.098;6.064;2023-04-03T04:55:55;1.30;99.90
57664;DHT22;43493;53.098;6.064;2023-04-03T04:58:21;1.40;99.90
57664;DHT22;43493;53.098;6.064;2023-04-03T05:00:47;1.30;99.90
57664;DHT22;43493;53.098;6.064;2023-04-03T05:03:13;1.30;99.90
57664;DHT22;43493;53.098;6.064;2023-04-03T05:05:38;1.30;99.90
57664;DHT22;43493;53.098;6.064;2023-04-03T05:08:04;1.30;99.90
57664;DHT22;43493;53.098;6.064;2023-04-03T05:10:30;1.30;99.90
57664;DHT22;43493;53.098;6.064;2023-04-03T05:12:57;1.30;99.90
57664;DHT22;43493;53.098;6.064;2023-04-03T05:15:23;1.20;99.90
57664;DHT22;43493;53.098;6.064;2023-04-03T05:17:49;1.10;99.90
57664;DHT22;43493;53.098;6.064;2023-04-03T05:20:14;1.20;99.90
57664;DHT22;43493;53.098;6.064;2023-04-03T05:22:40;1.20;99.90
57664;DHT22;43493;53.098;6.064;2023-04-03T05:25:06;1.20;99.90
57664;DHT22;43493;53.098;6.064;2023-04-03T05:27:32;1.20;99.90
57664;DHT22;43493;53.098;6.064;2023-04-03T05:29:58;1.20;99.90
57664;DHT22;43493;53.098;6.064;2023-04-03T05:32:25;1.10;99.90
57664;DHT22;43493;53.098;6.064;2023-04-03T05:34:53;1.20;99.90
57664;DHT22;43493;53.098;6.064;2023-04-03T05:37:19;1.20;99.90
57664;DHT22;43493;53.098;6.064;2023-04-03T05:39:45;1.20;99.90
57664;DHT22;43493;53.098;6.064;2023-04-03T05:42:11;1.20;99.90
57664;DHT22;43493;53.098;6.064;2023-04-03T05:44:37;1.10;99.90
57664;DHT22;43493;53.098;6.064;2023-04-03T05:47:04;1.20;99.90
57664;DHT22;43493;53.098;6.064;2023-04-03T05:49:30;1.20;99.90
57664;DHT22;43493;53.098;6.064;2023-04-03T05:51:56;1.20;99.90
57664;DHT22;43493;53.098;6.064;2023-04-03T05:54:24;1.20;99.90
57664;DHT22;43493;53.098;6.064;2023-04-03T05:56:51;1.20;99.90
57664;DHT22;43493;53.098;6.064;2023-04-03T05:59:18;1.30;99.90
57664;DHT22;43493;53.098;6.064;2023-04-03T06:01:44;1.30;99.90
57664;DHT22;43493;53.098;6.064;2023-04-03T06:04:10;1.40;99.90
57664;DHT22;43493;53.098;6.064;2023-04-03T06:06:50;1.40;99.90
57664;DHT22;43493;53.098;6.064;2023-04-03T06:09:17;1.40;99.90
57664;DHT22;43493;53.098;6.064;2023-04-03T06:11:42;1.50;99.90
57664;DHT22;43493;53.098;6.064;2023-04-03T06:14:09;1.50;99.90
57664;DHT22;43493;53.098;6.064;2023-04-03T06:16:35;1.90;99.90
57664;DHT22;43493;53.098;6.064;2023-04-03T06:19:00;2.50;99.90
57664;DHT22;43493;53.098;6.064;2023-04-03T06:21:26;3.40;99.90
57664;DHT22;43493;53.098;6.064;2023-04-03T06:23:52;4.60;99.90
57664;DHT22;43493;53.098;6.064;2023-04-03T06:26:18;5.90;99.90
57664;DHT22;43493;53.098;6.064;2023-04-03T06:28:43;6.90;99.90
57664;DHT22;43493;53.098;6.064;2023-04-03T06:31:09;7.30;99.90
57664;DHT22;43493;53.098;6.064;2023-04-03T06:33:35;7.20;99.90
57664;DHT22;43493;53.098;6.064;2023-04-03T06:36:04;7.00;99.90
57664;DHT22;43493;53.098;6.064;2023-04-03T06:38:30;6.70;99.90
57664;DHT22;43493;53.098;6.064;2023-04-03T06:40:56;7.30;99.90
57664;DHT22;43493;53.098;6.064;2023-04-03T06:43:22;8.10;99.90
57664;DHT22;43493;53.098;6.064;2023-04-03T06:45:48;9.00;99.90
57664;DHT22;43493;53.098;6.064;2023-04-03T06:48:14;9.70;99.90
57664;DHT22;43493;53.098;6.064;2023-04-03T06:50:40;10.20;98.20
57664;DHT22;43493;53.098;6.064;2023-04-03T06:53:06;10.80;99.90
57664;DHT22;43493;53.098;6.064;2023-04-03T06:55:32;11.30;98.60
57664;DHT22;43493;53.098;6.064;2023-04-03T06:57:58;11.70;94.60
57664;DHT22;43493;53.098;6.064;2023-04-03T07:00:24;12.10;94.10
57664;DHT22;43493;53.098;6.064;2023-04-03T07:02:50;12.50;91.00
57664;DHT22;43493;53.098;6.064;2023-04-03T07:05:17;12.90;79.20
57664;DHT22;43493;53.098;6.064;2023-04-03T07:07:43;12.90;81.60
57664;DHT22;43493;53.098;6.064;2023-04-03T07:10:09;13.10;78.10
57664;DHT22;43493;53.098;6.064;2023-04-03T07:12:36;13.40;77.30
57664;DHT22;43493;53.098;6.064;2023-04-03T07:15:04;13.90;67.10
57664;DHT22;43493;53.098;6.064;2023-04-03T07:17:30;14.20;68.70
57664;DHT22;43493;53.098;6.064;2023-04-03T07:19:56;14.60;66.60
57664;DHT22;43493;53.098;6.064;2023-04-03T07:22:22;14.40;53.10
57664;DHT22;43493;53.098;6.064;2023-04-03T07:27:14;15.30;51.80
57664;DHT22;43493;53.098;6.064;2023-04-03T07:29:39;16.00;47.80
57664;DHT22;43493;53.098;6.064;2023-04-03T07:32:06;16.50;47.50
57664;DHT22;43493;53.098;6.064;2023-04-03T07:34:32;16.70;46.00
57664;DHT22;43493;53.098;6.064;2023-04-03T07:36:58;16.60;47.10
57664;DHT22;43493;53.098;6.064;2023-04-03T07:39:24;16.60;52.80
57664;DHT22;43493;53.098;6.064;2023-04-03T07:41:51;16.80;51.10
57664;DHT22;43493;53.098;6.064;2023-04-03T07:44:17;16.20;43.30
57664;DHT22;43493;53.098;6.064;2023-04-03T07:46:43;16.10;45.00
57664;DHT22;43493;53.098;6.064;2023-04-03T07:49:09;15.80;50.30
57664;DHT22;43493;53.098;6.064;2023-04-03T07:51:36;15.70;50.50
57664;DHT22;43493;53.098;6.064;2023-04-03T07:54:02;14.60;50.50
57664;DHT22;43493;53.098;6.064;2023-04-03T07:56:27;13.50;51.60
57664;DHT22;43493;53.098;6.064;2023-04-03T07:58:53;12.50;52.40
57664;DHT22;43493;53.098;6.064;2023-04-03T08:01:19;11.70;54.10
57664;DHT22;43493;53.098;6.064;2023-04-03T08:03:45;10.90;54.30
57664;DHT22;43493;53.098;6.064;2023-04-03T08:06:11;10.40;55.60
57664;DHT22;43493;53.098;6.064;2023-04-03T08:08:36;10.00;56.00
57664;DHT22;43493;53.098;6.064;2023-04-03T08:11:03;9.70;57.40
57664;DHT22;43493;53.098;6.064;2023-04-03T08:13:30;9.50;58.10
57664;DHT22;43493;53.098;6.064;2023-04-03T08:15:56;9.20;58.80
57664;DHT22;43493;53.098;6.064;2023-04-03T08:18:23;9.00;59.40
57664;DHT22;43493;53.098;6.064;2023-04-03T08:20:50;9.00;61.10
57664;DHT22;43493;53.098;6.064;2023-04-03T08:23:17;8.70;59.90
57664;DHT22;43493;53.098;6.064;2023-04-03T08:25:44;8.60;60.10
57664;DHT22;43493;53.098;6.064;2023-04-03T08:28:11;8.40;60.20
57664;DHT22;43493;53.098;6.064;2023-04-03T08:30:40;8.30;60.30
57664;DHT22;43493;53.098;6.064;2023-04-03T08:33:06;8.30;61.90
57664;DHT22;43493;53.098;6.064;2023-04-03T08:35:32;8.20;61.70
57664;DHT22;43493;53.098;6.064;2023-04-03T08:37:58;8.20;61.90
57664;DHT22;43493;53.098;6.064;2023-04-03T08:40:24;8.00;61.60
57664;DHT22;43493;53.098;6.064;2023-04-03T08:45:46;7.80;63.00
57664;DHT22;43493;53.098;6.064;2023-04-03T08:48:27;7.70;63.00
57664;DHT22;43493;53.098;6.064;2023-04-03T08:51:00;7.60;63.00
57664;DHT22;43493;53.098;6.064;2023-04-03T08:53:32;7.40;62.50
57664;DHT22;43493;53.098;6.064;2023-04-03T08:56:03;7.40;64.90
57664;DHT22;43493;53.098;6.064;2023-04-03T08:58:41;7.40;64.80
57664;DHT22;43493;53.098;6.064;2023-04-03T09:01:39;7.40;64.90
57664;DHT22;43493;53.098;6.064;2023-04-03T09:04:14;7.40;62.60
57664;DHT22;43493;53.098;6.064;2023-04-03T09:06:43;7.40;63.70
57664;DHT22;43493;53.098;6.064;2023-04-03T09:09:38;7.40;64.40
57664;DHT22;43493;53.098;6.064;2023-04-03T09:12:21;7.60;63.50
57664;DHT22;43493;53.098;6.064;2023-04-03T09:25:43;7.50;62.90
57664;DHT22;43493;53.098;6.064;2023-04-03T09:28:09;7.50;62.10
57664;DHT22;43493;53.098;6.064;2023-04-03T09:30:36;7.60;62.50
57664;DHT22;43493;53.098;6.064;2023-04-03T09:33:03;7.60;62.30
57664;DHT22;43493;53.098;6.064;2023-04-03T09:35:37;7.60;61.20
57664;DHT22;43493;53.098;6.064;2023-04-03T09:40:39;7.60;61.90
57664;DHT22;43493;53.098;6.064;2023-04-03T09:43:24;7.70;62.00
57664;DHT22;43493;53.098;6.064;2023-04-03T09:45:52;7.70;62.00
57664;DHT22;43493;53.098;6.064;2023-04-03T09:48:20;7.60;61.70
57664;DHT22;43493;53.098;6.064;2023-04-03T09:50:55;7.70;62.50
57664;DHT22;43493;53.098;6.064;2023-04-03T09:53:43;7.80;62.10
57664;DHT22;43493;53.098;6.064;2023-04-03T09:58:46;7.80;58.80
57664;DHT22;43493;53.098;6.064;2023-04-03T10:01:32;7.90;59.60
57664;DHT22;43493;53.098;6.064;2023-04-03T10:04:09;7.80;58.60
57664;DHT22;43493;53.098;6.064;2023-04-03T10:09:32;7.90;57.00
57664;DHT22;43493;53.098;6.064;2023-04-03T10:12:06;8.00;56.30
57664;DHT22;43493;53.098;6.064;2023-04-03T10:19:58;8.20;58.80
57664;DHT22;43493;53.098;6.064;2023-04-03T10:22:40;8.30;58.30
57664;DHT22;43493;53.098;6.064;2023-04-03T10:25:33;8.30;58.80
57664;DHT22;43493;53.098;6.064;2023-04-03T10:28:05;8.30;57.80
57664;DHT22;43493;53.098;6.064;2023-04-03T10:36:02;8.20;55.10
57664;DHT22;43493;53.098;6.064;2023-04-03T10:38:48;8.10;55.70
57664;DHT22;43493;53.098;6.064;2023-04-03T10:44:15;8.30;54.80
57664;DHT22;43493;53.098;6.064;2023-04-03T10:46:49;8.30;53.90
57664;DHT22;43493;53.098;6.064;2023-04-03T10:49:51;8.30;53.30
57664;DHT22;43493;53.098;6.064;2023-04-03T10:52:20;8.30;51.40
57664;DHT22;43493;53.098;6.064;2023-04-03T10:57:41;8.10;50.60
57664;DHT22;43493;53.098;6.064;2023-04-03T11:00:16;8.20;51.00
57664;DHT22;43493;53.098;6.064;2023-04-03T11:03:02;8.20;50.30
57664;DHT22;43493;53.098;6.064;2023-04-03T11:05:37;8.20;49.40
57664;DHT22;43493;53.098;6.064;2023-04-03T11:08:13;8.20;51.50
57664;DHT22;43493;53.098;6.064;2023-04-03T11:10:50;8.30;50.00
57664;DHT22;43493;53.098;6.064;2023-04-03T11:13:21;8.30;49.00
57664;DHT22;43493;53.098;6.064;2023-04-03T11:15:49;8.40;50.90
57664;DHT22;43493;53.098;6.064;2023-04-03T11:18:37;8.30;50.70
57664;DHT22;43493;53.098;6.064;2023-04-03T11:21:34;8.30;51.10
57664;DHT22;43493;53.098;6.064;2023-04-03T11:24:05;8.40;49.90
57664;DHT22;43493;53.098;6.064;2023-04-03T11:26:40;8.50;51.90
57664;DHT22;43493;53.098;6.064;2023-04-03T11:29:15;8.40;52.50
57664;DHT22;43493;53.098;6.064;2023-04-03T11:32:02;8.30;52.20
57664;DHT22;43493;53.098;6.064;2023-04-03T11:34:48;8.30;52.00
57664;DHT22;43493;53.098;6.064;2023-04-03T11:37:37;8.30;51.60
57664;DHT22;43493;53.098;6.064;2023-04-03T11:40:07;8.30;50.30
57664;DHT22;43493;53.098;6.064;2023-04-03T11:42:40;8.40;52.00
57664;DHT22;43493;53.098;6.064;2023-04-03T11:47:58;8.40;49.60
57664;DHT22;43493;53.098;6.064;2023-04-03T12:19:27;8.60;52.10
57664;DHT22;43493;53.098;6.064;2023-04-03T12:24:30;8.70;52.30
57664;DHT22;43493;53.098;6.064;2023-04-03T12:27:34;8.70;51.60
57664;DHT22;43493;53.098;6.064;2023-04-03T12:36:04;8.80;52.50
57664;DHT22;43493;53.098;6.064;2023-04-03T12:44:58;8.70;52.10
57664;DHT22;43493;53.098;6.064;2023-04-03T12:47:34;8.70;50.60
57664;DHT22;43493;53.098;6.064;2023-04-03T12:50:02;8.70;52.80
57664;DHT22;43493;53.098;6.064;2023-04-03T12:52:34;8.70;48.50
57664;DHT22;43493;53.098;6.064;2023-04-03T12:55:03;8.70;51.60
57664;DHT22;43493;53.098;6.064;2023-04-03T12:57:32;8.70;51.00
57664;DHT22;43493;53.098;6.064;2023-04-03T12:59:58;8.70;51.90
57664;DHT22;43493;53.098;6.064;2023-04-03T13:02:30;8.70;51.70
57664;DHT22;43493;53.098;6.064;2023-04-03T13:04:59;8.60;50.60
57664;DHT22;43493;53.098;6.064;2023-04-03T13:07:32;8.60;51.70
57664;DHT22;43493;53.098;6.064;2023-04-03T13:10:20;8.70;50.60
57664;DHT22;43493;53.098;6.064;2023-04-03T13:12:47;8.60;50.30
57664;DHT22;43493;53.098;6.064;2023-04-03T13:17:43;8.60;51.30
57664;DHT22;43493;53.098;6.064;2023-04-03T13:20:19;8.60;51.70
57664;DHT22;43493;53.098;6.064;2023-04-03T13:22:52;8.60;52.20
57664;DHT22;43493;53.098;6.064;2023-04-03T13:25:21;8.70;51.60
57664;DHT22;43493;53.098;6.064;2023-04-03T13:27:47;8.70;50.40
57664;DHT22;43493;53.098;6.064;2023-04-03T13:30:32;8.80;50.70
57664;DHT22;43493;53.098;6.064;2023-04-03T13:33:01;8.80;50.60
57664;DHT22;43493;53.098;6.064;2023-04-03T13:35:39;8.80;51.80
57664;DHT22;43493;53.098;6.064;2023-04-03T13:40:52;8.80;51.60
57664;DHT22;43493;53.098;6.064;2023-04-03T13:43:24;8.80;51.40
57664;DHT22;43493;53.098;6.064;2023-04-03T13:48:50;8.70;51.80
57664;DHT22;43493;53.098;6.064;2023-04-03T13:53:54;8.80;52.80
57664;DHT22;43493;53.098;6.064;2023-04-03T14:01:50;8.90;51.50
57664;DHT22;43493;53.098;6.064;2023-04-03T14:04:31;8.90;50.70
57664;DHT22;43493;53.098;6.064;2023-04-03T14:06:57;8.90;52.00
57664;DHT22;43493;53.098;6.064;2023-04-03T14:09:24;8.90;52.30
57664;DHT22;43493;53.098;6.064;2023-04-03T14:11:55;8.80;51.90
57664;DHT22;43493;53.098;6.064;2023-04-03T14:14:29;8.90;52.90
57664;DHT22;43493;53.098;6.064;2023-04-03T14:16:58;8.90;51.90
57664;DHT22;43493;53.098;6.064;2023-04-03T14:19:35;8.80;52.10
57664;DHT22;43493;53.098;6.064;2023-04-03T14:22:13;8.80;51.70
57664;DHT22;43493;53.098;6.064;2023-04-03T14:24:39;8.90;51.30
57664;DHT22;43493;53.098;6.064;2023-04-03T14:27:21;8.90;52.40
57664;DHT22;43493;53.098;6.064;2023-04-03T14:29:49;9.00;51.10
57664;DHT22;43493;53.098;6.064;2023-04-03T14:32:16;9.00;53.30
57664;DHT22;43493;53.098;6.064;2023-04-03T14:34:43;9.00;52.60
57664;DHT22;43493;53.098;6.064;2023-04-03T14:37:12;8.90;53.40
57664;DHT22;43493;53.098;6.064;2023-04-03T14:39:38;8.90;51.50
57664;DHT22;43493;53.098;6.064;2023-04-03T14:42:04;8.90;53.30
57664;DHT22;43493;53.098;6.064;2023-04-03T14:44:30;8.90;52.80
57664;DHT22;43493;53.098;6.064;2023-04-03T14:46:56;8.90;53.80
57664;DHT22;43493;53.098;6.064;2023-04-03T14:49:25;9.00;53.90
57664;DHT22;43493;53.098;6.064;2023-04-03T14:51:53;9.00;53.60
57664;DHT22;43493;53.098;6.064;2023-04-03T14:54:20;9.10;53.50
57664;DHT22;43493;53.098;6.064;2023-04-03T14:56:51;9.10;52.90
57664;DHT22;43493;53.098;6.064;2023-04-03T14:59:17;9.10;51.80
57664;DHT22;43493;53.098;6.064;2023-04-03T15:01:45;9.10;51.30
57664;DHT22;43493;53.098;6.064;2023-04-03T15:04:20;9.00;52.50
57664;DHT22;43493;53.098;6.064;2023-04-03T15:06:47;8.90;51.80
57664;DHT22;43493;53.098;6.064;2023-04-03T15:09:24;8.90;52.70
57664;DHT22;43493;53.098;6.064;2023-04-03T15:11:52;9.00;52.30
57664;DHT22;43493;53.098;6.064;2023-04-03T15:14:18;9.10;53.40
57664;DHT22;43493;53.098;6.064;2023-04-03T15:16:44;9.00;53.20
57664;DHT22;43493;53.098;6.064;2023-04-03T15:19:10;9.00;55.00
57664;DHT22;43493;53.098;6.064;2023-04-03T15:21:36;9.00;57.50
57664;DHT22;43493;53.098;6.064;2023-04-03T15:24:02;9.00;58.10
57664;DHT22;43493;53.098;6.064;2023-04-03T15:26:27;9.00;58.40
57664;DHT22;43493;53.098;6.064;2023-04-03T15:28:53;9.00;58.60
57664;DHT22;43493;53.098;6.064;2023-04-03T15:31:19;8.90;58.60
57664;DHT22;43493;53.098;6.064;2023-04-03T15:33:45;8.80;59.00
57664;DHT22;43493;53.098;6.064;2023-04-03T15:36:10;8.90;59.70
57664;DHT22;43493;53.098;6.064;2023-04-03T15:38:36;8.90;59.60
57664;DHT22;43493;53.098;6.064;2023-04-03T15:41:04;8.90;59.70
57664;DHT22;43493;53.098;6.064;2023-04-03T15:43:30;8.90;59.30
57664;DHT22;43493;53.098;6.064;2023-04-03T15:45:57;8.90;58.30
57664;DHT22;43493;53.098;6.064;2023-04-03T15:48:24;8.90;58.60
57664;DHT22;43493;53.098;6.064;2023-04-03T15:50:50;8.80;59.80
57664;DHT22;43493;53.098;6.064;2023-04-03T15:53:16;8.70;59.00
57664;DHT22;43493;53.098;6.064;2023-04-03T15:55:42;8.70;60.90
57664;DHT22;43493;53.098;6.064;2023-04-03T15:58:08;8.70;61.50
57664;DHT22;43493;53.098;6.064;2023-04-03T16:00:35;8.70;60.90
57664;DHT22;43493;53.098;6.064;2023-04-03T16:03:05;8.70;60.50
57664;DHT22;43493;53.098;6.064;2023-04-03T16:05:31;8.70;61.70
57664;DHT22;43493;53.098;6.064;2023-04-03T16:07:59;8.70;61.80
57664;DHT22;43493;53.098;6.064;2023-04-03T16:10:26;8.60;62.40
57664;DHT22;43493;53.098;6.064;2023-04-03T16:12:52;8.60;63.60
57664;DHT22;43493;53.098;6.064;2023-04-03T16:15:17;8.60;64.60
57664;DHT22;43493;53.098;6.064;2023-04-03T16:17:43;8.50;63.70
57664;DHT22;43493;53.098;6.064;2023-04-03T16:20:11;8.50;63.50
57664;DHT22;43493;53.098;6.064;2023-04-03T16:22:38;8.60;64.50
57664;DHT22;43493;53.098;6.064;2023-04-03T16:25:05;8.50;65.50
57664;DHT22;43493;53.098;6.064;2023-04-03T16:27:32;8.50;65.10
57664;DHT22;43493;53.098;6.064;2023-04-03T16:29:58;8.50;65.50
57664;DHT22;43493;53.098;6.064;2023-04-03T16:32:25;8.40;66.00
57664;DHT22;43493;53.098;6.064;2023-04-03T16:34:52;8.40;64.20
57664;DHT22;43493;53.098;6.064;2023-04-03T16:37:18;8.30;62.90
57664;DHT22;43493;53.098;6.064;2023-04-03T16:39:43;8.30;63.10
57664;DHT22;43493;53.098;6.064;2023-04-03T16:42:09;8.30;63.30
57664;DHT22;43493;53.098;6.064;2023-04-03T16:44:36;8.30;64.30
57664;DHT22;43493;53.098;6.064;2023-04-03T16:47:02;8.30;64.50
57664;DHT22;43493;53.098;6.064;2023-04-03T16:49:28;8.30;64.90
57664;DHT22;43493;53.098;6.064;2023-04-03T16:51:58;8.30;64.00
57664;DHT22;43493;53.098;6.064;2023-04-03T16:54:24;8.30;65.10
57664;DHT22;43493;53.098;6.064;2023-04-03T16:56:50;8.30;64.50
57664;DHT22;43493;53.098;6.064;2023-04-03T16:59:16;8.20;65.90
57664;DHT22;43493;53.098;6.064;2023-04-03T17:01:41;8.20;66.10
57664;DHT22;43493;53.098;6.064;2023-04-03T17:04:07;8.20;65.50
57664;DHT22;43493;53.098;6.064;2023-04-03T17:06:33;8.10;67.10
57664;DHT22;43493;53.098;6.064;2023-04-03T17:08:59;8.00;66.80
57664;DHT22;43493;53.098;6.064;2023-04-03T17:11:25;8.00;67.10
57664;DHT22;43493;53.098;6.064;2023-04-03T17:13:51;8.00;67.00
57664;DHT22;43493;53.098;6.064;2023-04-03T17:16:17;7.90;68.10
57664;DHT22;43493;53.098;6.064;2023-04-03T17:18:43;7.80;67.70
57664;DHT22;43493;53.098;6.064;2023-04-03T17:21:11;7.80;69.20
57664;DHT22;43493;53.098;6.064;2023-04-03T17:23:38;7.70;70.00
57664;DHT22;43493;53.098;6.064;2023-04-03T17:26:04;7.70;71.40
57664;DHT22;43493;53.098;6.064;2023-04-03T17:28:30;7.70;72.70
57664;DHT22;43493;53.098;6.064;2023-04-03T17:30:58;7.60;72.70
57664;DHT22;43493;53.098;6.064;2023-04-03T17:33:25;7.60;73.00
57664;DHT22;43493;53.098;6.064;2023-04-03T17:35:55;7.50;73.40
57664;DHT22;43493;53.098;6.064;2023-04-03T17:38:21;7.50;74.40
57664;DHT22;43493;53.098;6.064;2023-04-03T17:40:46;7.40;74.60
57664;DHT22;43493;53.098;6.064;2023-04-03T17:43:12;7.40;74.30
57664;DHT22;43493;53.098;6.064;2023-04-03T17:45:38;7.30;75.70
57664;DHT22;43493;53.098;6.064;2023-04-03T17:48:04;7.30;78.70
57664;DHT22;43493;53.098;6.064;2023-04-03T17:50:30;7.20;75.10